createdAt,value
2023-01-20T00:02:45.362Z,50.90
2023-01-20T00:08:38.446Z,57.37
2023-01-20T00:14:30.697Z,59.65
2023-01-20T00:20:23.751Z,54.92
2023-01-20T00:26:19.807Z,57.95
2023-01-20T00:32:12.701Z,56.03
2023-01-20T00:38:05.859Z,54.92
2023-01-20T00:43:58.794Z,52.90
2023-01-20T00:49:51.745Z,53.10
2023-01-20T01:01:37.880Z,57.33
2023-01-20T01:07:30.526Z,58.88
2023-01-20T01:13:22.732Z,63.20
2023-01-20T01:19:14.852Z,64.88
2023-01-20T01:25:08.161Z,64.97
2023-01-20T01:31:05.140Z,63.35
2023-01-20T01:36:58.242Z,59.88
2023-01-20T01:42:50.402Z,55.80
2023-01-20T01:48:46.332Z,57.83
2023-01-20T01:54:43.130Z,56.63
2023-01-20T02:00:37.007Z,61.25
2023-01-20T02:06:34.452Z,59.28
2023-01-20T02:12:26.777Z,57.65
2023-01-20T02:18:51.942Z,60.60
2023-01-20T02:25:21.984Z,65.07
2023-01-20T02:31:25.657Z,58.95
2023-01-20T02:37:23.803Z,59.90
2023-01-20T02:43:31.847Z,56.42
2023-01-20T02:49:42.357Z,63.47
2023-01-20T02:55:49.867Z,61.78
2023-01-20T03:01:48.785Z,64.65
2023-01-20T03:07:44.080Z,60.63
2023-01-20T03:13:49.266Z,64.57
2023-01-20T03:19:41.981Z,68.82
2023-01-20T03:25:34.728Z,61.38
2023-01-20T03:31:50.338Z,61.75
2023-01-20T03:37:44.412Z,63.10
2023-01-20T03:43:52.190Z,66.25
2023-01-20T03:50:09.633Z,68.50
2023-01-20T03:56:44.201Z,76.22
2023-01-20T04:02:38.741Z,72.88
2023-01-20T04:08:35.591Z,66.85
2023-01-20T04:14:28.299Z,67.97
2023-01-20T04:20:21.708Z,65.05
2023-01-20T04:26:14.363Z,64.32
2023-01-20T04:32:06.960Z,65.67
2023-01-20T04:37:59.422Z,69.70
2023-01-20T04:43:52.415Z,64.55
2023-01-20T04:49:45.876Z,63.45
2023-01-20T04:55:38.653Z,64.30
2023-01-20T05:01:31.243Z,63.53
2023-01-20T05:13:16.419Z,62.10
2023-01-20T05:19:11.919Z,62.30
2023-01-20T05:25:04.897Z,59.83
2023-01-20T05:30:57.655Z,60.25
2023-01-20T05:36:54.117Z,58.28
2023-01-20T05:42:48.218Z,62.30
2023-01-20T05:48:41.456Z,65.05
2023-01-20T06:00:26.696Z,64.65
2023-01-20T06:06:19.578Z,58.58
2023-01-20T06:12:12.512Z,59.00
2023-01-20T06:18:06.342Z,69.70
2023-01-20T06:23:58.179Z,70.07
2023-01-20T06:29:51.139Z,65.20
2023-01-20T06:35:43.544Z,60.63
2023-01-20T06:41:36.589Z,63.78
2023-01-20T06:47:29.413Z,70.15
2023-01-20T06:53:21.861Z,69.10
2023-01-20T06:59:14.465Z,68.60
2023-01-20T07:05:08.405Z,63.27
2023-01-20T07:11:01.800Z,67.45
2023-01-20T07:16:54.663Z,62.75
2023-01-20T07:22:47.861Z,60.08
2023-01-20T07:28:40.848Z,82.68
2023-01-20T07:34:50.205Z,85.47
2023-01-20T07:40:42.761Z,74.75
2023-01-20T07:46:35.677Z,74.57
2023-01-20T07:52:28.511Z,71.68
2023-01-20T07:58:21.775Z,71.22
2023-01-20T08:04:15.140Z,58.45
2023-01-20T08:10:08.329Z,62.07
2023-01-20T08:16:03.188Z,62.60
2023-01-20T08:21:56.200Z,69.45
2023-01-20T08:27:50.302Z,62.38
2023-01-20T08:33:43.943Z,55.30
2023-01-20T08:39:36.450Z,55.42
2023-01-20T08:45:29.761Z,53.38
2023-01-20T08:51:26.001Z,51.15
2023-01-20T08:57:18.314Z,48.75
2023-01-20T09:03:12.886Z,51.50
2023-01-20T09:09:06.173Z,52.35
2023-01-20T09:14:59.223Z,54.97
2023-01-20T09:20:51.990Z,52.37
2023-01-20T09:26:45.595Z,49.03
2023-01-20T09:32:38.902Z,53.80
2023-01-20T09:38:49.551Z,56.22
2023-01-20T09:44:56.905Z,47.60
2023-01-20T09:51:17.304Z,44.25
2023-01-20T09:57:12.854Z,44.50
2023-01-20T10:03:16.463Z,45.35
2023-01-20T10:09:52.100Z,37.72
2023-01-20T10:15:50.577Z,28.80
2023-01-20T10:21:52.542Z,26.85
2023-01-20T10:27:58.849Z,24.48
2023-01-20T10:33:55.943Z,24.95
2023-01-20T10:39:53.743Z,20.67
2023-01-20T10:46:01.858Z,20.85
2023-01-20T10:52:18.221Z,21.23
2023-01-20T10:58:20.063Z,22.10
2023-01-20T11:04:22.095Z,20.45
2023-01-20T11:10:15.480Z,26.17
2023-01-20T11:16:24.807Z,29.17
2023-01-20T11:22:26.269Z,35.45
2023-01-20T11:28:20.272Z,47.10
2023-01-20T11:34:32.972Z,47.45
2023-01-20T11:40:28.800Z,48.92
2023-01-20T11:46:25.535Z,44.15
2023-01-20T11:52:21.239Z,43.90
2023-01-20T11:58:23.871Z,44.00
2023-01-20T12:04:37.824Z,44.80
2023-01-20T12:10:34.888Z,42.90
2023-01-20T12:16:31.174Z,42.75
2023-01-20T12:22:46.345Z,41.75
2023-01-20T12:28:49.629Z,45.00
2023-01-20T12:34:43.541Z,40.30
2023-01-20T12:40:54.143Z,41.97
2023-01-20T12:46:57.325Z,40.53
2023-01-20T12:53:18.400Z,40.53
2023-01-20T12:59:39.589Z,36.00
2023-01-20T13:06:09.565Z,34.42
2023-01-20T13:12:18.833Z,33.40
2023-01-20T13:18:36.261Z,35.42
2023-01-20T13:24:31.680Z,33.28
2023-01-20T13:30:45.412Z,32.78
2023-01-20T13:36:38.641Z,37.25
2023-01-20T13:42:37.365Z,29.90
2023-01-20T13:48:34.101Z,23.90
2023-01-20T13:54:29.340Z,24.27
2023-01-20T14:00:23.677Z,25.88
2023-01-20T14:06:22.925Z,24.35
2023-01-20T14:12:15.461Z,23.42
2023-01-20T14:18:15.420Z,26.27
2023-01-20T14:24:26.957Z,29.17
2023-01-20T14:30:27.769Z,30.63
2023-01-20T14:36:22.813Z,33.65
2023-01-20T14:42:20.860Z,36.95
2023-01-20T14:48:28.221Z,36.17
2023-01-20T14:54:37.332Z,34.50
2023-01-20T15:00:34.174Z,33.15
2023-01-20T15:06:27.185Z,26.70
2023-01-20T15:12:38.115Z,22.50
2023-01-20T15:18:31.032Z,22.38
2023-01-20T15:24:30.596Z,26.08
2023-01-20T15:30:28.099Z,25.67
2023-01-20T15:36:29.476Z,26.63
2023-01-20T15:42:21.652Z,29.55
2023-01-20T15:48:22.021Z,27.88
2023-01-20T15:54:15.103Z,28.02
2023-01-20T16:00:16.329Z,30.50
2023-01-20T16:06:14.313Z,27.55
2023-01-20T16:12:09.661Z,33.40
2023-01-20T16:18:03.238Z,34.35
2023-01-20T16:23:56.216Z,37.22
2023-01-20T16:29:50.024Z,33.80
2023-01-20T16:35:42.821Z,39.40
2023-01-20T16:41:37.479Z,40.78
2023-01-20T16:47:30.210Z,41.13
2023-01-20T16:53:23.170Z,45.03
2023-01-20T16:59:17.645Z,38.60
2023-01-20T17:05:10.291Z,40.20
2023-01-20T17:11:03.850Z,44.05
2023-01-20T17:16:58.660Z,44.03
2023-01-20T17:22:53.642Z,46.08
2023-01-20T17:28:47.171Z,47.00
2023-01-20T17:34:39.162Z,51.38
2023-01-20T17:40:31.800Z,46.17
2023-01-20T17:46:26.256Z,51.55
2023-01-20T17:52:20.400Z,46.50
2023-01-20T17:58:14.439Z,56.30
2023-01-20T18:04:10.569Z,50.10
2023-01-20T18:10:03.450Z,58.75
2023-01-20T18:15:56.421Z,50.67
2023-01-20T18:21:49.402Z,57.83
2023-01-20T18:27:42.213Z,56.50
2023-01-20T18:33:44.782Z,53.20
2023-01-20T18:39:37.570Z,42.30
2023-01-20T18:45:30.466Z,51.85
2023-01-20T18:51:28.661Z,45.00
2023-01-20T18:57:21.381Z,48.60
2023-01-20T19:03:15.394Z,48.35
2023-01-20T19:09:09.128Z,39.42
2023-01-20T19:15:01.551Z,45.20
2023-01-20T19:20:54.644Z,50.08
2023-01-20T19:26:47.868Z,33.60
2023-01-20T19:32:42.446Z,48.05
2023-01-20T19:38:35.872Z,35.78
2023-01-20T19:44:28.871Z,37.78
2023-01-20T19:50:23.164Z,44.25
2023-01-20T19:56:19.287Z,38.72
2023-01-20T20:02:11.512Z,37.65
2023-01-20T20:13:59.981Z,46.83
2023-01-20T20:19:53.141Z,58.33
2023-01-20T20:25:51.589Z,58.58
2023-01-20T20:31:43.765Z,45.15
2023-01-20T20:37:37.396Z,41.03
2023-01-20T20:43:29.978Z,50.85
2023-01-20T20:49:22.659Z,42.05
2023-01-20T20:55:15.734Z,53.58
2023-01-20T21:01:13.173Z,61.20
2023-01-20T21:07:05.257Z,53.70
2023-01-20T21:12:58.013Z,64.53
2023-01-20T21:18:52.823Z,41.03
2023-01-20T21:24:45.612Z,46.95
2023-01-20T21:36:32.775Z,50.58
2023-01-20T21:42:26.007Z,45.53
2023-01-20T21:54:31.204Z,34.00
2023-01-20T22:00:23.982Z,45.28
2023-01-20T22:06:16.827Z,36.88
2023-01-20T22:12:09.538Z,35.35
2023-01-20T22:18:02.980Z,30.92
2023-01-20T22:23:56.907Z,28.02
2023-01-20T22:29:49.357Z,31.25
2023-01-20T22:35:42.021Z,26.80
2023-01-20T22:41:34.904Z,33.40
2023-01-20T22:47:27.318Z,29.83
2023-01-20T22:53:20.061Z,29.83
2023-01-20T22:59:13.908Z,37.33
2023-01-20T23:05:07.202Z,36.75
2023-01-20T23:11:03.384Z,30.75
2023-01-20T23:16:56.231Z,23.38
2023-01-20T23:22:49.069Z,24.55
2023-01-20T23:34:35.110Z,30.23
2023-01-20T23:40:30.478Z,28.38
2023-01-20T23:46:23.292Z,30.85
2023-01-20T23:52:16.070Z,32.30
2023-01-20T23:58:08.314Z,28.08
